DAAE

Soummam Airport

Béjaïa, Algeria
METAR DAAE 241100Z 06007KT CAVOK 28/19 Q1021
Observed Flight Rules
Sep-24 @ 11:00 UTC (49 minutes ago) Visual Flight Rules
Wind Visibility Clouds
60° at 7 knots 10,000+ meters
  • Clear skies
Temperatures Readings
Current 28°C / 82°F
Dewpoint 19°C / 66°F
Humidity 58%
Altimeter 30.15" Hg
Pressure 1021 hPa
Elevation 2
METAR DAAE 241100Z 06007KT CAVOK 28/19 Q1021
Observed Flight Rules
Sep-24 @ 11:00 UTC
(49 minutes ago)
VFR
Wind Visibility
60° at 7 knots 10,000+ meters
Clouds
  • Clear skies
Temperature Dewpoint
28°C / 82°F 19°C / 66°F
Humidity Altimeter Pressure
58% 30.15" Hg 1021 hPa